Time;durP1;ratioP1;P1;durP2;ratioP2;P2;SDS_P1;SDS_P2;PMS_P1;PMS_P2;Temp;Humidity;BMP_temperature;BMP_pressure;BME280_temperature;BME280_humidity;BME280_pressure;Samples;Min_cycle;Max_cycle;Signal;HPM_P1;HPM_P2
2023/08/03 00:00:18;;;;;;;9.13;2.28;;;15.60;99.90;;;;;;4973966;28;20041;-76
2023/08/03 00:02:45;;;;;;;9.60;2.30;;;15.60;99.90;;;;;;4986897;28;20043;-76
2023/08/03 00:05:11;;;;;;;7.38;2.10;;;15.60;99.90;;;;;;4989163;28;20034;-76
2023/08/03 00:07:37;;;;;;;7.30;2.20;;;15.60;99.90;;;;;;4974455;28;20046;-76
2023/08/03 00:10:02;;;;;;;5.43;2.20;;;15.60;99.90;;;;;;4972876;28;21373;-76
2023/08/03 00:12:28;;;;;;;8.40;1.88;;;15.60;99.90;;;;;;4956987;28;20042;-76
2023/08/03 00:14:55;;;;;;;5.13;2.10;;;15.70;99.90;;;;;;4989236;28;20129;-76
2023/08/03 00:17:21;;;;;;;5.75;2.30;;;15.70;99.90;;;;;;4973058;28;20043;-76
2023/08/03 00:19:46;;;;;;;4.15;1.92;;;15.70;99.90;;;;;;4973216;28;20444;-76
2023/08/03 00:22:12;;;;;;;5.20;2.50;;;15.70;99.90;;;;;;4958438;28;20038;-76
2023/08/03 00:24:38;;;;;;;7.53;2.00;;;15.70;99.90;;;;;;4957899;28;20038;-76
2023/08/03 00:27:04;;;;;;;6.70;2.30;;;15.70;99.90;;;;;;4974220;28;20034;-76
2023/08/03 00:29:29;;;;;;;7.47;1.92;;;15.70;99.90;;;;;;4972499;28;20523;-76
2023/08/03 00:31:55;;;;;;;6.63;1.88;;;15.60;99.90;;;;;;4957787;28;20162;-76
2023/08/03 00:34:21;;;;;;;5.07;2.15;;;15.70;99.90;;;;;;4941058;28;20054;-76
2023/08/03 00:36:46;;;;;;;6.85;2.20;;;15.70;99.90;;;;;;4972319;28;20428;-77
2023/08/03 00:39:12;;;;;;;6.65;2.10;;;15.70;99.90;;;;;;4972612;28;20491;-77
2023/08/03 00:41:38;;;;;;;5.65;2.00;;;15.60;99.90;;;;;;4971239;28;20404;-77
2023/08/03 00:44:04;;;;;;;5.88;1.70;;;15.70;99.90;;;;;;4973939;28;20045;-77
2023/08/03 00:46:29;;;;;;;8.38;2.05;;;15.60;99.90;;;;;;4950661;28;20038;-77
2023/08/03 00:48:55;;;;;;;4.75;2.15;;;15.60;99.90;;;;;;4988550;28;20034;-77
2023/08/03 00:51:21;;;;;;;4.68;2.30;;;15.60;99.90;;;;;;4961865;28;20050;-77
2023/08/03 00:53:47;;;;;;;4.47;2.33;;;15.60;99.90;;;;;;4976023;28;20425;-78
2023/08/03 00:56:13;;;;;;;6.57;2.05;;;15.60;99.90;;;;;;4968182;28;20467;-77
2023/08/03 00:58:39;;;;;;;6.60;1.77;;;15.50;99.90;;;;;;4982560;28;20042;-76
2023/08/03 01:01:05;;;;;;;5.05;2.00;;;15.50;99.90;;;;;;4988255;28;20034;-77
2023/08/03 01:03:31;;;;;;;3.47;1.83;;;15.60;99.90;;;;;;4980868;28;20045;-77
2023/08/03 01:05:57;;;;;;;4.45;2.10;;;15.50;99.90;;;;;;4978350;28;20400;-76
2023/08/03 01:08:23;;;;;;;7.35;2.20;;;15.50;99.90;;;;;;4964153;28;20053;-76
2023/08/03 01:10:49;;;;;;;8.23;2.53;;;15.50;99.90;;;;;;4962759;28;20038;-77
2023/08/03 01:13:15;;;;;;;4.05;2.38;;;15.50;99.90;;;;;;4989426;28;20100;-77
2023/08/03 01:15:41;;;;;;;6.53;2.35;;;15.50;99.90;;;;;;4967879;28;20128;-77
2023/08/03 01:18:07;;;;;;;6.05;2.25;;;15.50;99.90;;;;;;4981694;28;20503;-76
2023/08/03 01:20:35;;;;;;;6.07;2.10;;;15.50;99.90;;;;;;4964502;28;20555;-77
2023/08/03 01:23:04;;;;;;;7.35;2.10;;;15.50;99.90;;;;;;4965144;28;20038;-77
2023/08/03 01:25:31;;;;;;;11.85;2.20;;;15.50;99.90;;;;;;4995754;28;20391;-77
2023/08/03 01:27:57;;;;;;;4.47;2.28;;;15.50;99.90;;;;;;4967991;28;20499;-76
2023/08/03 01:30:23;;;;;;;3.03;1.95;;;15.50;99.90;;;;;;4983789;28;20172;-76
2023/08/03 01:32:49;;;;;;;3.55;2.15;;;15.50;99.90;;;;;;4982790;28;20045;-77
2023/08/03 01:35:15;;;;;;;7.90;2.92;;;15.50;99.90;;;;;;4987214;28;20052;-77
2023/08/03 01:37:41;;;;;;;4.40;2.28;;;15.50;99.90;;;;;;4982146;28;20050;-76
2023/08/03 01:40:08;;;;;;;7.60;2.70;;;15.50;99.90;;;;;;4964474;28;20034;-77
2023/08/03 01:42:33;;;;;;;3.92;2.10;;;15.50;99.90;;;;;;4981308;28;20080;-76
2023/08/03 01:44:59;;;;;;;7.82;2.60;;;15.50;99.90;;;;;;4989391;28;20058;-77
2023/08/03 01:47:25;;;;;;;5.85;2.35;;;15.40;99.90;;;;;;4991194;28;20042;-76
2023/08/03 01:49:50;;;;;;;3.92;2.08;;;15.40;99.90;;;;;;4991428;28;20045;-76
2023/08/03 01:52:16;;;;;;;9.18;3.40;;;15.40;99.90;;;;;;5007484;28;20041;-77
2023/08/03 01:54:42;;;;;;;7.68;2.30;;;15.40;99.90;;;;;;4975443;28;20129;-77
2023/08/03 01:57:07;;;;;;;7.22;2.20;;;15.40;99.90;;;;;;4989486;28;20043;-77
2023/08/03 01:59:33;;;;;;;6.20;2.10;;;15.40;99.90;;;;;;4975277;28;20042;-77
2023/08/03 02:01:59;;;;;;;4.18;2.03;;;15.40;99.90;;;;;;4975583;28;20076;-77
2023/08/03 02:04:25;;;;;;;6.85;2.00;;;15.40;99.90;;;;;;4987128;28;20455;-78
2023/08/03 02:06:56;;;;;;;5.28;2.20;;;15.40;99.90;;;;;;5007633;28;20756;-77
2023/08/03 02:09:21;;;;;;;9.50;2.42;;;15.40;99.90;;;;;;5002651;28;20124;-77
2023/08/03 02:11:47;;;;;;;4.45;2.30;;;15.40;99.90;;;;;;4988402;28;20124;-77
2023/08/03 02:14:13;;;;;;;8.45;2.22;;;15.40;99.90;;;;;;4991319;28;20061;-77
2023/08/03 02:16:39;;;;;;;6.15;2.25;;;15.40;99.90;;;;;;5007786;28;20139;-77
2023/08/03 02:19:04;;;;;;;4.15;2.60;;;15.40;99.90;;;;;;4973632;28;20037;-77
2023/08/03 02:21:30;;;;;;;5.10;2.33;;;15.40;99.90;;;;;;5007942;28;20073;-77
2023/08/03 02:23:56;;;;;;;3.13;2.20;;;15.40;99.90;;;;;;4994167;28;20407;-77
2023/08/03 02:26:21;;;;;;;7.80;2.65;;;15.40;99.90;;;;;;5009295;28;20116;-77
2023/08/03 02:28:47;;;;;;;6.75;2.80;;;15.40;99.90;;;;;;5010822;28;20096;-77
2023/08/03 02:31:13;;;;;;;3.30;2.30;;;15.40;99.90;;;;;;4977723;28;20049;-77
2023/08/03 02:33:38;;;;;;;2.67;2.30;;;15.40;99.90;;;;;;5025828;28;20030;-77
2023/08/03 02:36:04;;;;;;;7.03;2.50;;;15.40;99.90;;;;;;4979055;28;20042;-77
2023/08/03 02:38:30;;;;;;;3.03;2.65;;;15.40;99.90;;;;;;5026287;28;20048;-76
2023/08/03 02:40:57;;;;;;;4.95;3.35;;;15.40;99.90;;;;;;4994600;28;20475;-76
2023/08/03 02:43:24;;;;;;;5.28;2.70;;;15.40;99.90;;;;;;5009553;28;20546;-78
2023/08/03 02:45:50;;;;;;;4.25;2.80;;;15.50;99.90;;;;;;4994462;28;20092;-77
2023/08/03 02:48:15;;;;;;;4.57;3.13;;;15.40;99.90;;;;;;5026163;28;20073;-77
2023/08/03 02:50:41;;;;;;;6.45;3.00;;;15.40;99.90;;;;;;5007224;28;20111;-77
2023/08/03 02:53:07;;;;;;;8.80;3.58;;;15.50;99.90;;;;;;5009529;28;20467;-77
2023/08/03 02:55:32;;;;;;;4.70;2.97;;;15.50;99.90;;;;;;4994152;28;20064;-76
2023/08/03 02:57:58;;;;;;;4.90;3.53;;;15.50;99.90;;;;;;4992651;28;20038;-76
2023/08/03 03:00:23;;;;;;;13.43;4.10;;;15.50;99.90;;;;;;5006597;28;20081;-76
2023/08/03 03:02:49;;;;;;;11.70;4.70;;;15.50;99.90;;;;;;5004697;28;20038;-77
2023/08/03 03:05:15;;;;;;;10.48;4.68;;;15.50;99.90;;;;;;4961403;28;20037;-77
2023/08/03 03:07:40;;;;;;;8.10;4.63;;;15.50;99.90;;;;;;4993627;28;20088;-77
2023/08/03 03:10:06;;;;;;;8.43;4.50;;;15.50;99.90;;;;;;4974354;28;20407;-77
2023/08/03 03:12:32;;;;;;;12.27;4.82;;;15.50;99.90;;;;;;5003124;28;20045;-77
2023/08/03 03:14:58;;;;;;;7.93;4.53;;;15.50;99.90;;;;;;5023381;28;20042;-77
2023/08/03 03:17:23;;;;;;;10.77;4.90;;;15.50;99.90;;;;;;4997131;28;20121;-77
2023/08/03 03:19:49;;;;;;;10.32;4.97;;;15.60;99.90;;;;;;4975167;28;20125;-77
2023/08/03 03:22:15;;;;;;;10.88;5.55;;;15.60;99.90;;;;;;4993788;28;20042;-77
2023/08/03 03:24:40;;;;;;;11.85;5.65;;;15.60;99.90;;;;;;5010568;28;20061;-77
2023/08/03 03:27:06;;;;;;;18.35;6.28;;;15.60;99.90;;;;;;5009259;28;20068;-76
2023/08/03 03:29:32;;;;;;;13.07;6.43;;;15.60;99.90;;;;;;4984934;28;20510;-77
2023/08/03 03:31:57;;;;;;;14.80;5.68;;;15.60;99.90;;;;;;4998896;28;20038;-77
2023/08/03 03:34:23;;;;;;;10.70;4.97;;;15.60;99.90;;;;;;4992627;28;20103;-77
2023/08/03 03:36:50;;;;;;;10.45;5.60;;;15.60;99.90;;;;;;5010970;28;20107;-77
2023/08/03 03:39:15;;;;;;;10.15;5.30;;;15.60;99.90;;;;;;5004835;28;20034;-77
2023/08/03 03:41:41;;;;;;;11.40;5.30;;;15.60;99.90;;;;;;4990662;28;20762;-77
2023/08/03 03:44:07;;;;;;;12.27;5.10;;;15.70;99.90;;;;;;4990456;28;20034;-77
2023/08/03 03:46:33;;;;;;;10.80;5.28;;;15.70;99.90;;;;;;4990249;28;20050;-77
2023/08/03 03:48:58;;;;;;;13.57;5.95;;;15.70;99.90;;;;;;4990120;28;20049;-77
2023/08/03 03:51:24;;;;;;;18.20;5.72;;;15.70;99.90;;;;;;5006044;28;20498;-79
2023/08/03 03:53:50;;;;;;;11.05;5.20;;;15.70;99.90;;;;;;4988182;28;20038;-78
2023/08/03 03:56:15;;;;;;;11.48;5.55;;;15.70;99.90;;;;;;4990568;28;20042;-79
2023/08/03 03:58:41;;;;;;;10.35;5.00;;;15.70;99.90;;;;;;4957102;28;20136;-79
2023/08/03 04:01:06;;;;;;;11.82;5.20;;;15.70;99.90;;;;;;4989774;28;20072;-78
2023/08/03 04:03:32;;;;;;;15.75;5.32;;;15.70;99.90;;;;;;4990583;28;20030;-78
2023/08/03 04:05:58;;;;;;;13.18;5.20;;;15.70;99.90;;;;;;4993410;28;20095;-77
2023/08/03 04:08:24;;;;;;;16.77;5.03;;;15.80;99.90;;;;;;5008999;28;20049;-77
2023/08/03 04:10:49;;;;;;;19.52;5.75;;;15.80;99.90;;;;;;4961480;28;21028;-77
2023/08/03 04:13:15;;;;;;;17.58;5.10;;;15.80;99.90;;;;;;5023542;28;20038;-77
2023/08/03 04:15:41;;;;;;;16.35;5.30;;;15.80;99.90;;;;;;4992712;28;20108;-77
2023/08/03 04:18:06;;;;;;;13.75;5.13;;;15.80;99.90;;;;;;4992968;28;20137;-77
2023/08/03 04:20:32;;;;;;;10.40;5.00;;;15.80;99.90;;;;;;4991818;28;20482;-77
2023/08/03 04:22:58;;;;;;;16.75;4.97;;;15.80;99.90;;;;;;5009124;28;20038;-77
2023/08/03 04:25:23;;;;;;;14.65;4.80;;;15.80;99.90;;;;;;4978894;28;20380;-77
2023/08/03 04:27:49;;;;;;;13.60;5.60;;;15.80;99.90;;;;;;4977777;28;20033;-76
2023/08/03 04:30:15;;;;;;;17.38;4.82;;;15.80;99.90;;;;;;5009609;28;20038;-77
2023/08/03 04:32:41;;;;;;;11.40;4.50;;;15.80;99.90;;;;;;5006346;28;20471;-77
2023/08/03 04:35:09;;;;;;;18.83;4.57;;;15.80;99.90;;;;;;5004085;28;20042;-77
2023/08/03 04:37:34;;;;;;;16.48;5.63;;;15.80;99.90;;;;;;5008715;28;20045;-77
2023/08/03 04:40:00;;;;;;;13.55;4.20;;;15.70;99.90;;;;;;5008501;28;20177;-77
2023/08/03 04:42:26;;;;;;;12.13;3.80;;;15.70;99.90;;;;;;5022811;28;20038;-78
2023/08/03 04:44:52;;;;;;;14.45;3.92;;;15.80;99.90;;;;;;4991544;28;20047;-77
2023/08/03 04:47:18;;;;;;;8.23;3.95;;;15.80;99.90;;;;;;4987117;28;20133;-77
2023/08/03 04:49:44;;;;;;;12.13;4.30;;;15.80;99.90;;;;;;4992099;28;20799;-77
2023/08/03 04:52:09;;;;;;;14.98;4.43;;;15.80;99.90;;;;;;4975674;28;20124;-77
2023/08/03 04:54:35;;;;;;;12.32;3.88;;;15.80;99.90;;;;;;4990950;28;20049;-77
2023/08/03 04:57:01;;;;;;;14.98;3.88;;;15.80;99.90;;;;;;5005916;28;20042;-77
2023/08/03 04:59:26;;;;;;;12.48;4.25;;;15.80;99.90;;;;;;4993420;28;20038;-77
2023/08/03 05:01:52;;;;;;;10.27;4.38;;;15.80;99.90;;;;;;4981904;28;20148;-77
2023/08/03 05:04:18;;;;;;;14.25;4.10;;;15.80;99.90;;;;;;4976176;28;20046;-77
2023/08/03 05:06:43;;;;;;;9.48;4.47;;;15.80;99.90;;;;;;4991404;28;20053;-77
2023/08/03 05:09:09;;;;;;;14.98;4.70;;;15.80;99.90;;;;;;5005525;28;20044;-77
2023/08/03 05:11:35;;;;;;;17.77;5.10;;;15.90;99.90;;;;;;4989270;28;20038;-77
2023/08/03 05:14:00;;;;;;;15.73;6.95;;;15.80;99.90;;;;;;4975691;28;20119;-77
2023/08/03 05:16:27;;;;;;;16.42;5.80;;;15.90;99.90;;;;;;4990954;28;20510;-78
2023/08/03 05:18:53;;;;;;;10.77;6.70;;;15.90;99.90;;;;;;4990872;28;20046;-77
2023/08/03 05:21:19;;;;;;;15.93;5.97;;;15.90;99.90;;;;;;4976335;28;20026;-77
2023/08/03 05:23:45;;;;;;;20.45;5.95;;;15.90;99.90;;;;;;5007443;28;20037;-77
2023/08/03 05:26:11;;;;;;;15.70;6.22;;;15.90;99.90;;;;;;4992165;28;20034;-77
2023/08/03 05:28:38;;;;;;;16.30;6.55;;;15.90;99.90;;;;;;4974022;28;20041;-77
2023/08/03 05:31:05;;;;;;;13.00;6.50;;;15.90;99.90;;;;;;5022897;28;20069;-77
2023/08/03 05:33:35;;;;;;;15.75;7.15;;;16.00;99.90;;;;;;5007358;28;20073;-77
2023/08/03 05:36:02;;;;;;;16.00;6.65;;;16.00;99.90;;;;;;5009672;28;20494;-77
2023/08/03 05:38:28;;;;;;;14.80;7.00;;;16.00;99.90;;;;;;4995324;28;20125;-77
2023/08/03 05:40:54;;;;;;;17.02;6.80;;;16.00;99.90;;;;;;5006751;28;20121;-77
2023/08/03 05:43:24;;;;;;;12.38;7.10;;;16.10;99.90;;;;;;5006190;28;20088;-77
2023/08/03 05:45:56;;;;;;;16.77;7.78;;;16.10;99.90;;;;;;4991865;28;20049;-77
2023/08/03 05:48:22;;;;;;;13.77;7.38;;;16.10;99.90;;;;;;5004700;28;20517;-77
2023/08/03 05:50:52;;;;;;;13.57;6.70;;;16.20;99.90;;;;;;4989593;28;20046;-77
2023/08/03 05:53:19;;;;;;;14.77;7.40;;;16.20;99.90;;;;;;5023320;28;20053;-77
2023/08/03 05:55:46;;;;;;;12.13;7.05;;;16.30;99.90;;;;;;4990379;28;20079;-77
2023/08/03 05:58:14;;;;;;;14.75;6.88;;;16.30;99.90;;;;;;5023043;28;20045;-77
2023/08/03 06:00:41;;;;;;;11.45;6.63;;;16.30;99.90;;;;;;5024125;28;20062;-77
2023/08/03 06:03:13;;;;;;;12.77;7.07;;;16.30;99.90;;;;;;5005130;28;20038;-77
2023/08/03 06:05:38;;;;;;;10.38;6.78;;;16.30;99.90;;;;;;4978272;28;20029;-77
2023/08/03 06:08:10;;;;;;;15.95;6.80;;;16.30;99.90;;;;;;5016533;28;20112;-76
2023/08/03 06:10:36;;;;;;;18.63;7.13;;;16.40;99.90;;;;;;4976292;28;20054;-77
2023/08/03 06:13:04;;;;;;;11.70;6.95;;;16.40;99.90;;;;;;4986523;28;20095;-79
2023/08/03 06:15:30;;;;;;;23.25;7.88;;;16.40;99.90;;;;;;4974778;28;20041;-79
2023/08/03 06:18:03;;;;;;;13.25;7.38;;;16.50;99.90;;;;;;4985142;28;20116;-78
2023/08/03 06:20:28;;;;;;;17.40;7.90;;;16.50;99.90;;;;;;4981692;28;20038;-75
2023/08/03 06:22:55;;;;;;;14.52;6.75;;;16.50;99.90;;;;;;4973915;28;20511;-75
2023/08/03 06:25:23;;;;;;;11.60;6.47;;;16.60;99.90;;;;;;4991699;28;20042;-75
2023/08/03 06:27:50;;;;;;;11.57;6.32;;;16.60;99.90;;;;;;4984702;28;20054;-77
2023/08/03 06:30:17;;;;;;;14.32;6.80;;;16.70;99.90;;;;;;4974397;28;20491;-76
2023/08/03 06:32:43;;;;;;;13.73;6.70;;;16.80;99.90;;;;;;4992827;28;20045;-76
2023/08/03 06:35:33;;;;;;;11.70;6.53;;;16.90;99.90;;;;;;4976224;28;20526;-76
2023/08/03 06:38:02;;;;;;;14.05;7.00;;;16.90;99.90;;;;;;4964620;28;20053;-78
2023/08/03 06:40:28;;;;;;;10.88;5.68;;;16.90;99.90;;;;;;4943817;28;20040;-79
2023/08/03 06:42:54;;;;;;;8.23;5.85;;;17.00;99.90;;;;;;4975084;28;20407;-79
2023/08/03 06:45:20;;;;;;;11.93;6.47;;;17.00;99.90;;;;;;4990823;28;20054;-76
2023/08/03 06:47:47;;;;;;;12.07;6.32;;;17.00;99.90;;;;;;4982985;28;20581;-75
2023/08/03 06:50:13;;;;;;;13.15;5.68;;;17.10;99.90;;;;;;4985449;28;20566;-75
2023/08/03 06:52:38;;;;;;;11.10;5.50;;;17.00;99.90;;;;;;4981277;28;20057;-75
2023/08/03 06:55:04;;;;;;;15.73;5.90;;;17.10;99.90;;;;;;4962452;28;20411;-77
2023/08/03 06:57:30;;;;;;;14.52;6.53;;;17.00;99.90;;;;;;4974224;28;20522;-78
2023/08/03 06:59:56;;;;;;;13.55;5.75;;;17.10;99.90;;;;;;4967214;28;20092;-78
2023/08/03 07:02:22;;;;;;;8.25;5.47;;;17.10;99.90;;;;;;4991047;28;20046;-75
2023/08/03 07:04:48;;;;;;;8.93;5.32;;;17.10;99.90;;;;;;5009204;28;20041;-76
2023/08/03 07:07:14;;;;;;;8.27;5.43;;;17.10;99.90;;;;;;4985263;28;20549;-75
2023/08/03 07:09:40;;;;;;;16.73;6.22;;;17.10;99.90;;;;;;4991454;28;20033;-76
2023/08/03 07:12:15;;;;;;;10.10;5.30;;;17.30;99.90;;;;;;5010816;28;20100;-75
2023/08/03 07:14:41;;;;;;;13.63;5.18;;;17.40;99.90;;;;;;4994809;28;20042;-75
2023/08/03 07:17:07;;;;;;;12.63;5.35;;;17.40;99.90;;;;;;5010842;28;20411;-77
2023/08/03 07:19:33;;;;;;;11.73;5.30;;;17.50;99.90;;;;;;5026969;28;20499;-77
2023/08/03 07:21:58;;;;;;;8.13;4.95;;;17.50;99.90;;;;;;5010923;28;20038;-77
2023/08/03 07:24:27;;;;;;;10.00;5.13;;;17.60;99.90;;;;;;5008361;28;20038;-77
2023/08/03 07:26:54;;;;;;;8.07;4.00;;;17.70;99.90;;;;;;5009637;28;20057;-77
2023/08/03 07:29:20;;;;;;;9.05;4.78;;;17.80;99.90;;;;;;4992522;28;20066;-77
2023/08/03 07:31:45;;;;;;;9.77;4.80;;;17.70;99.90;;;;;;5025802;28;20141;-77
2023/08/03 07:34:11;;;;;;;8.82;4.07;;;17.70;99.90;;;;;;4993848;28;20038;-77
2023/08/03 07:36:37;;;;;;;7.20;4.15;;;17.60;99.90;;;;;;5012749;28;20049;-77
2023/08/03 07:39:02;;;;;;;9.23;4.00;;;17.50;99.90;;;;;;5013897;28;20045;-77
2023/08/03 07:41:28;;;;;;;8.68;3.40;;;17.60;99.90;;;;;;4997893;28;20048;-77
2023/08/03 07:43:54;;;;;;;5.57;2.72;;;17.70;99.90;;;;;;5030666;28;20037;-77
2023/08/03 07:46:20;;;;;;;5.45;2.85;;;17.90;99.90;;;;;;4994846;28;20806;-77
2023/08/03 07:48:45;;;;;;;5.20;3.05;;;18.00;99.90;;;;;;4975187;28;20070;-77
2023/08/03 07:51:16;;;;;;;6.53;3.25;;;18.20;99.90;;;;;;4993239;28;20093;-77
2023/08/03 07:53:41;;;;;;;6.13;2.95;;;18.20;99.90;;;;;;4975013;28;20074;-77
2023/08/03 07:56:21;;;;;;;9.70;2.70;;;18.30;99.90;;;;;;4976924;28;20066;-77
2023/08/03 07:58:49;;;;;;;4.88;2.65;;;18.50;99.90;;;;;;4962505;28;20049;-77
2023/08/03 08:01:15;;;;;;;5.32;2.38;;;18.50;99.90;;;;;;4977916;28;20036;-77
2023/08/03 08:03:41;;;;;;;6.55;2.42;;;18.40;99.90;;;;;;4978262;28;20543;-77
2023/08/03 08:06:12;;;;;;;2.63;1.70;;;18.40;99.90;;;;;;4978236;28;20175;-77
2023/08/03 08:08:38;;;;;;;2.90;1.80;;;18.40;99.90;;;;;;4978149;28;20038;-77
2023/08/03 08:11:04;;;;;;;6.30;1.85;;;18.50;99.90;;;;;;4959466;28;20039;-77
2023/08/03 08:13:31;;;;;;;3.83;2.15;;;18.60;99.90;;;;;;4977787;28;20504;-77
2023/08/03 08:16:00;;;;;;;4.78;1.90;;;18.80;99.90;;;;;;4977792;28;20050;-77
2023/08/03 08:18:29;;;;;;;5.45;1.65;;;19.10;99.90;;;;;;4961753;28;20093;-77
2023/08/03 08:21:00;;;;;;;4.30;2.10;;;19.20;99.90;;;;;;4977402;28;20038;-77
2023/08/03 08:23:26;;;;;;;4.10;1.48;;;19.20;99.90;;;;;;4961718;28;20034;-77
2023/08/03 08:25:51;;;;;;;3.20;1.67;;;19.10;99.90;;;;;;4975183;28;20518;-77
2023/08/03 08:28:18;;;;;;;3.53;1.42;;;19.10;99.90;;;;;;4956169;28;20046;-77
2023/08/03 08:30:46;;;;;;;2.88;1.20;;;19.10;99.90;;;;;;4961430;28;20038;-76
2023/08/03 08:33:15;;;;;;;4.28;1.50;;;19.00;99.90;;;;;;4977636;28;20076;-76
2023/08/03 08:35:41;;;;;;;3.00;1.70;;;18.70;99.90;;;;;;4977302;28;20057;-77
2023/08/03 08:38:09;;;;;;;2.25;1.52;;;18.60;99.90;;;;;;4992449;28;20042;-77
2023/08/03 08:40:36;;;;;;;2.95;1.75;;;18.50;99.90;;;;;;4961285;28;20042;-76
2023/08/03 08:43:02;;;;;;;3.40;1.48;;;18.60;99.90;;;;;;4961025;28;20452;-76
2023/08/03 08:45:32;;;;;;;5.20;2.30;;;18.80;99.90;;;;;;4984122;28;20062;-76
2023/08/03 08:47:58;;;;;;;2.53;1.25;;;19.00;99.90;;;;;;4976175;28;20042;-76
2023/08/03 08:50:24;;;;;;;2.40;1.38;;;19.30;99.90;;;;;;4992804;28;20124;-76
2023/08/03 08:52:51;;;;;;;3.85;1.33;;;19.60;99.90;;;;;;4977560;28;20121;-76
2023/08/03 08:55:28;;;;;;;4.28;1.35;;;19.70;99.90;;;;;;4991914;28;20050;-76
2023/08/03 08:57:54;;;;;;;2.45;1.42;;;19.80;99.90;;;;;;4991758;28;20054;-75
2023/08/03 09:00:24;;;;;;;5.55;1.33;;;19.80;99.90;;;;;;4992589;28;20043;-77
2023/08/03 09:02:55;;;;;;;2.25;1.65;;;20.00;99.90;;;;;;4993094;28;20391;-77
2023/08/03 09:05:22;;;;;;;5.13;1.63;;;20.10;99.90;;;;;;4976067;28;20042;-77
2023/08/03 09:08:22;;;;;;;1.92;1.40;;;20.10;99.90;;;;;;4976984;28;20046;-77
2023/08/03 09:10:50;;;;;;;4.07;1.60;;;19.90;99.90;;;;;;4993177;28;20048;-77
2023/08/03 09:13:36;;;;;;;4.10;2.10;;;19.50;99.90;;;;;;5008669;28;20050;-79
2023/08/03 09:16:03;;;;;;;1.55;1.30;;;19.40;99.90;;;;;;4989754;28;20380;-77
2023/08/03 09:18:31;;;;;;;6.18;2.05;;;19.50;99.90;;;;;;4974982;28;20058;-77
2023/08/03 09:21:14;;;;;;;3.70;1.63;;;19.60;99.90;;;;;;4991202;28;20518;-77
2023/08/03 09:23:40;;;;;;;2.35;1.40;;;19.90;99.90;;;;;;4964595;28;20066;-77
2023/08/03 09:26:06;;;;;;;1.92;1.25;;;20.20;99.90;;;;;;4995457;28;20436;-80
2023/08/03 09:28:37;;;;;;;4.63;1.40;;;20.30;99.90;;;;;;4976497;28;20054;-79
2023/08/03 09:31:03;;;;;;;2.55;1.65;;;20.20;99.90;;;;;;4992033;28;20120;-79
2023/08/03 09:33:30;;;;;;;1.98;1.20;;;20.10;99.90;;;;;;4992264;28;20049;-80
2023/08/03 09:36:03;;;;;;;4.85;1.27;;;20.30;99.90;;;;;;4992487;28;20084;-79
2023/08/03 09:38:29;;;;;;;2.95;1.15;;;20.30;99.90;;;;;;4992304;28;20116;-80
2023/08/03 09:40:55;;;;;;;5.03;1.55;;;20.50;99.90;;;;;;5004440;28;20495;-80
2023/08/03 09:43:26;;;;;;;4.43;1.05;;;20.70;99.90;;;;;;4976130;28;20129;-80
2023/08/03 09:45:52;;;;;;;3.63;1.60;;;20.80;99.90;;;;;;5008482;28;20078;-80
2023/08/03 09:48:22;;;;;;;4.45;1.23;;;20.80;99.90;;;;;;4991973;28;20104;-80
2023/08/03 09:50:53;;;;;;;4.20;1.30;;;20.80;99.90;;;;;;4992012;28;20069;-79
2023/08/03 09:53:30;;;;;;;4.45;1.52;;;20.90;99.90;;;;;;4992294;28;20076;-79
2023/08/03 09:56:00;;;;;;;1.70;0.98;;;21.10;99.90;;;;;;4975720;28;20046;-81
2023/08/03 09:58:51;;;;;;;1.83;1.08;;;21.10;99.90;;;;;;4991699;28;20416;-78
2023/08/03 10:01:23;;;;;;;1.42;0.85;;;21.00;99.90;;;;;;4975344;28;20073;-77
2023/08/03 10:03:55;;;;;;;3.97;1.30;;;20.80;99.90;;;;;;4991425;28;20616;-79
2023/08/03 10:06:26;;;;;;;2.47;1.23;;;20.80;99.90;;;;;;4975844;28;20033;-76
2023/08/03 10:09:06;;;;;;;1.95;1.25;;;21.00;99.90;;;;;;4992276;28;20038;-78
2023/08/03 10:11:46;;;;;;;1.55;0.80;;;21.20;99.90;;;;;;4992246;28;20117;-77
2023/08/03 10:14:15;;;;;;;3.10;1.50;;;21.40;99.90;;;;;;4991562;28;20039;-77
2023/08/03 10:16:42;;;;;;;4.00;1.42;;;21.50;99.90;;;;;;4975579;28;20034;-76
2023/08/03 10:19:08;;;;;;;6.03;1.25;;;21.50;99.90;;;;;;4991906;28;20044;-77
2023/08/03 10:21:36;;;;;;;2.08;1.48;;;21.60;99.90;;;;;;4986515;28;20563;-76
2023/08/03 10:24:15;;;;;;;2.00;1.00;;;21.50;99.90;;;;;;4992118;28;20036;-76
2023/08/03 10:26:42;;;;;;;1.98;1.40;;;21.30;99.90;;;;;;4975537;28;20035;-76
2023/08/03 10:29:08;;;;;;;1.75;1.52;;;21.10;99.90;;;;;;4975953;28;20391;-75
2023/08/03 10:31:55;;;;;;;3.70;1.08;;;21.10;99.90;;;;;;4991520;28;20056;-76
2023/08/03 10:34:25;;;;;;;4.13;1.38;;;21.10;99.90;;;;;;4975550;28;20479;-75
2023/08/03 10:36:53;;;;;;;2.05;0.90;;;20.90;99.90;;;;;;4991473;28;20038;-75
2023/08/03 10:39:54;;;;;;;2.05;1.30;;;20.70;99.90;;;;;;4973777;28;20034;-75
2023/08/03 10:42:28;;;;;;;2.38;1.30;;;20.60;99.90;;;;;;5007340;28;20039;-76
2023/08/03 10:45:15;;;;;;;4.03;1.30;;;20.90;99.90;;;;;;4991318;28;20062;-74
2023/08/03 10:47:40;;;;;;;2.47;1.30;;;21.30;99.90;;;;;;4990424;28;20053;-75
2023/08/03 10:50:06;;;;;;;3.60;1.10;;;21.50;99.90;;;;;;4991526;28;20050;-76
2023/08/03 10:52:33;;;;;;;4.35;1.10;;;21.40;99.90;;;;;;5007812;28;20045;-75
2023/08/03 10:55:19;;;;;;;4.55;1.77;;;21.20;99.90;;;;;;5007334;28;20490;-75
2023/08/03 10:57:45;;;;;;;5.90;1.50;;;21.00;99.90;;;;;;4988761;28;20368;-75
2023/08/03 11:00:12;;;;;;;3.17;1.88;;;21.10;99.90;;;;;;4988082;28;20100;-75
2023/08/03 11:02:37;;;;;;;4.70;1.42;;;21.30;99.90;;;;;;4990338;28;20042;-75
2023/08/03 11:05:05;;;;;;;3.05;1.55;;;21.60;99.90;;;;;;4990792;28;20333;-75
2023/08/03 11:07:40;;;;;;;3.53;1.40;;;22.00;99.90;;;;;;4989682;28;20149;-74
2023/08/03 11:10:09;;;;;;;6.18;2.13;;;22.00;99.90;;;;;;4990949;28;20053;-75
2023/08/03 11:12:35;;;;;;;4.82;1.58;;;21.90;99.90;;;;;;4993679;28;20100;-75
2023/08/03 11:15:05;;;;;;;4.38;1.63;;;21.80;99.90;;;;;;5011750;28;20513;-75
2023/08/03 11:17:36;;;;;;;2.22;1.45;;;21.60;99.90;;;;;;4995494;28;20054;-74
2023/08/03 11:20:04;;;;;;;2.60;1.00;;;21.60;99.90;;;;;;4994827;28;20073;-75
2023/08/03 11:22:31;;;;;;;2.42;1.20;;;21.80;99.90;;;;;;4992414;28;20050;-75
2023/08/03 11:24:59;;;;;;;5.47;2.03;;;22.00;99.90;;;;;;4995047;28;20130;-75
2023/08/03 11:27:25;;;;;;;2.78;1.00;;;22.10;99.90;;;;;;4993299;28;20043;-75
2023/08/03 11:29:56;;;;;;;2.55;1.27;;;22.00;99.90;;;;;;4994779;28;20045;-75
2023/08/03 11:32:27;;;;;;;4.90;1.63;;;22.20;99.90;;;;;;4994831;28;20125;-75
2023/08/03 11:35:06;;;;;;;3.90;1.30;;;22.10;99.90;;;;;;5011041;28;20082;-75
2023/08/03 11:37:33;;;;;;;1.00;0.90;;;22.30;99.90;;;;;;4994372;28;20046;-75
2023/08/03 11:40:00;;;;;;;5.93;1.73;;;22.40;99.90;;;;;;4978773;28;20046;-75
2023/08/03 11:42:27;;;;;;;10.75;1.85;;;22.50;99.90;;;;;;4994119;28;20118;-74
2023/08/03 11:44:53;;;;;;;4.07;1.30;;;22.60;99.90;;;;;;4988368;28;20054;-75
2023/08/03 11:47:19;;;;;;;3.45;1.50;;;22.70;99.90;;;;;;4989698;28;20050;-75
2023/08/03 11:49:48;;;;;;;3.30;1.40;;;22.80;99.90;;;;;;4978259;28;20092;-75
2023/08/03 11:52:21;;;;;;;2.65;1.38;;;23.00;99.90;;;;;;4994659;28;20057;-75
2023/08/03 11:54:48;;;;;;;3.75;1.83;;;23.10;99.90;;;;;;5007952;28;20136;-75
2023/08/03 11:59:57;;;;;;;3.30;1.35;;;23.30;99.90;;;;;;4991317;28;20077;-75
2023/08/03 12:02:37;;;;;;;4.40;1.60;;;23.40;99.90;;;;;;4982053;28;20492;-75
2023/08/03 12:05:03;;;;;;;4.05;1.20;;;23.30;99.90;;;;;;4978035;28;20120;-75
2023/08/03 12:07:29;;;;;;;3.17;1.23;;;23.30;99.90;;;;;;4994279;28;20534;-75
2023/08/03 12:09:54;;;;;;;3.47;1.67;;;23.30;99.90;;;;;;4980508;28;20042;-75
2023/08/03 12:12:20;;;;;;;3.30;1.42;;;23.30;99.90;;;;;;4962724;28;20039;-75
2023/08/03 12:14:46;;;;;;;2.55;1.33;;;23.30;99.90;;;;;;4989656;28;20117;-75
2023/08/03 12:17:12;;;;;;;5.28;1.40;;;23.30;99.90;;;;;;4994341;28;20050;-75
2023/08/03 12:19:38;;;;;;;1.83;1.05;;;23.30;99.90;;;;;;4994189;28;20124;-75
2023/08/03 12:22:04;;;;;;;2.38;1.33;;;23.30;99.90;;;;;;4975193;28;20062;-75
2023/08/03 12:24:31;;;;;;;3.05;1.60;;;23.30;99.90;;;;;;4976643;28;20100;-76
2023/08/03 12:26:56;;;;;;;1.98;0.90;;;23.30;99.90;;;;;;4965212;28;20045;-77
2023/08/03 12:29:23;;;;;;;1.83;0.93;;;23.50;99.90;;;;;;4956905;28;20101;-82
2023/08/03 12:31:50;;;;;;;1.95;1.10;;;23.50;99.90;;;;;;4956287;28;20042;-82
2023/08/03 12:34:16;;;;;;;1.88;1.02;;;23.50;99.90;;;;;;4972849;28;20096;-83
2023/08/03 12:36:41;;;;;;;1.55;1.10;;;23.60;99.90;;;;;;4974842;28;20046;-82
2023/08/03 12:39:07;;;;;;;3.40;1.23;;;23.30;99.90;;;;;;4954350;28;20100;-82
2023/08/03 12:41:33;;;;;;;4.00;1.63;;;23.00;99.90;;;;;;4962674;28;20046;-83
2023/08/03 12:43:59;;;;;;;3.00;1.50;;;22.70;99.90;;;;;;4948629;28;20039;-82
2023/08/03 12:46:25;;;;;;;1.48;0.95;;;22.60;99.90;;;;;;4938722;28;20046;-82